Time;durP1;ratioP1;P1;durP2;ratioP2;P2;SDS_P1;SDS_P2;PMS_P1;PMS_P2;Temp;Humidity;BMP_temperature;BMP_pressure;BME280_temperature;BME280_humidity;BME280_pressure;Samples;Min_cycle;Max_cycle;Signal;HPM_P1;HPM_P2
2022/11/13 00:02:06;;;;;;;1.53;1.20;;;9.50;98.20;;;;;;5017688;28;20494;-77
2022/11/13 00:04:33;;;;;;;1.60;1.20;;;9.50;98.20;;;;;;5030768;28;20487;-76
2022/11/13 00:07:00;;;;;;;1.57;1.10;;;9.50;98.20;;;;;;5024788;28;20556;-77
2022/11/13 00:09:28;;;;;;;1.60;1.20;;;9.50;98.20;;;;;;5042551;28;20491;-78
2022/11/13 00:11:55;;;;;;;1.60;1.30;;;9.50;98.20;;;;;;5038150;28;20577;-77
2022/11/13 00:14:22;;;;;;;1.60;1.40;;;9.40;98.20;;;;;;5044912;28;20566;-77
2022/11/13 00:16:49;;;;;;;1.57;1.20;;;9.40;98.20;;;;;;5026522;28;20495;-77
2022/11/13 00:19:15;;;;;;;1.60;1.20;;;9.30;98.20;;;;;;5038920;28;20462;-77
2022/11/13 00:21:42;;;;;;;1.53;1.20;;;9.30;98.20;;;;;;5020831;28;20484;-76
2022/11/13 00:24:09;;;;;;;1.60;1.20;;;9.20;98.20;;;;;;5035624;28;20530;-76
2022/11/13 00:26:38;;;;;;;1.60;1.37;;;9.20;98.20;;;;;;5028255;28;20479;-77
2022/11/13 00:29:05;;;;;;;1.60;1.20;;;9.20;98.20;;;;;;5025699;28;20467;-77
2022/11/13 00:31:32;;;;;;;1.60;1.20;;;9.10;98.20;;;;;;5029093;28;20471;-77
2022/11/13 00:33:59;;;;;;;1.60;1.20;;;9.10;98.20;;;;;;5052018;28;20559;-77
2022/11/13 00:36:28;;;;;;;1.60;1.30;;;9.10;98.20;;;;;;5033388;28;20498;-77
2022/11/13 00:38:55;;;;;;;1.60;1.33;;;9.10;98.20;;;;;;5046161;28;20948;-77
2022/11/13 00:41:22;;;;;;;1.60;1.30;;;9.00;98.20;;;;;;5024292;28;20484;-77
2022/11/13 00:43:50;;;;;;;1.60;1.20;;;9.00;98.20;;;;;;5030389;28;20455;-77
2022/11/13 00:46:17;;;;;;;1.60;1.50;;;9.00;98.20;;;;;;5034769;28;20481;-77
2022/11/13 00:48:44;;;;;;;1.60;1.20;;;8.90;98.20;;;;;;5030468;28;20969;-77
2022/11/13 00:51:11;;;;;;;1.60;1.20;;;8.90;98.20;;;;;;5026534;28;20597;-77
2022/11/13 00:53:38;;;;;;;1.53;1.20;;;8.90;98.20;;;;;;5044463;28;20538;-77
2022/11/13 00:58:32;;;;;;;1.60;1.20;;;8.80;98.20;;;;;;5050633;28;20467;-77
2022/11/13 01:01:08;;;;;;;1.60;1.20;;;8.80;98.20;;;;;;5041196;28;20523;-77
2022/11/13 01:03:36;;;;;;;1.60;1.20;;;8.80;98.20;;;;;;5052107;28;20450;-77
2022/11/13 01:06:11;;;;;;;1.60;1.20;;;8.80;98.20;;;;;;5036769;28;20479;-77
2022/11/13 01:08:38;;;;;;;1.57;1.20;;;8.70;98.20;;;;;;5023030;28;20556;-77
2022/11/13 01:11:09;;;;;;;1.57;1.30;;;8.70;98.20;;;;;;5005117;28;20794;-78
2022/11/13 01:13:37;;;;;;;1.73;1.63;;;8.70;98.20;;;;;;5026394;28;20457;-77
2022/11/13 01:16:08;;;;;;;1.60;1.30;;;8.60;98.20;;;;;;5011975;28;20522;-77
2022/11/13 01:18:37;;;;;;;1.60;1.30;;;8.60;98.20;;;;;;5023099;28;20460;-78
2022/11/13 01:21:06;;;;;;;1.60;1.30;;;8.60;98.20;;;;;;5012305;28;20464;-77
2022/11/13 01:23:33;;;;;;;1.60;1.20;;;8.60;98.20;;;;;;5041439;28;20463;-77
2022/11/13 01:26:09;;;;;;;1.57;1.20;;;8.60;98.20;;;;;;5026045;28;20484;-77
2022/11/13 01:28:37;;;;;;;1.60;1.20;;;8.50;98.20;;;;;;5023571;28;20630;-77
2022/11/13 01:31:07;;;;;;;1.60;1.20;;;8.50;98.20;;;;;;5014397;28;20460;-77
2022/11/13 01:33:35;;;;;;;1.60;1.20;;;8.50;98.20;;;;;;5037160;28;20466;-77
2022/11/13 01:36:03;;;;;;;1.80;1.70;;;8.50;98.20;;;;;;5015768;28;20509;-77
2022/11/13 01:38:31;;;;;;;1.60;1.20;;;8.40;98.20;;;;;;5036723;28;20540;-77
2022/11/13 01:40:58;;;;;;;1.60;1.20;;;8.40;98.20;;;;;;5010261;28;20717;-77
2022/11/13 01:43:31;;;;;;;1.60;1.20;;;8.40;98.20;;;;;;5044829;28;20459;-80
2022/11/13 01:46:17;;;;;;;1.60;1.30;;;8.40;98.20;;;;;;5029466;28;20489;-78
2022/11/13 01:48:46;;;;;;;1.60;1.30;;;8.40;98.20;;;;;;5048244;28;20465;-80
2022/11/13 01:51:17;;;;;;;1.60;1.30;;;8.40;98.20;;;;;;5033774;28;20479;-78
2022/11/13 01:53:47;;;;;;;1.70;1.30;;;8.50;98.20;;;;;;5026795;28;20557;-79
2022/11/13 01:56:15;;;;;;;1.60;1.20;;;8.60;98.20;;;;;;5017964;28;20475;-79
2022/11/13 01:58:46;;;;;;;1.60;1.20;;;8.60;98.20;;;;;;5027784;28;20994;-78
2022/11/13 02:01:14;;;;;;;1.60;1.20;;;8.70;98.20;;;;;;5017483;28;20562;-79
2022/11/13 02:03:41;;;;;;;1.60;1.27;;;8.70;98.20;;;;;;5028045;28;20459;-79
2022/11/13 02:06:08;;;;;;;1.60;1.20;;;8.80;98.20;;;;;;5024637;28;20545;-80
2022/11/13 02:08:35;;;;;;;1.60;1.30;;;8.80;98.20;;;;;;5042370;28;20467;-78
2022/11/13 02:11:03;;;;;;;2.67;2.47;;;8.80;98.20;;;;;;5019373;28;20483;-79
2022/11/13 02:13:30;;;;;;;3.00;2.80;;;8.90;98.20;;;;;;5045782;28;20463;-78
2022/11/13 02:15:57;;;;;;;1.53;1.20;;;8.90;98.20;;;;;;5018308;28;20491;-78
2022/11/13 02:18:27;;;;;;;1.60;1.20;;;8.90;98.20;;;;;;5024367;28;20452;-80
2022/11/13 02:21:01;;;;;;;1.60;1.30;;;8.90;98.20;;;;;;5021827;28;20453;-79
2022/11/13 02:23:35;;;;;;;1.60;1.30;;;8.90;98.20;;;;;;5034748;28;20494;-79
2022/11/13 02:26:05;;;;;;;1.60;1.20;;;9.00;98.20;;;;;;5035257;28;20498;-78
2022/11/13 02:28:32;;;;;;;1.60;1.20;;;9.00;98.20;;;;;;5044958;28;20455;-79
2022/11/13 02:31:07;;;;;;;1.60;1.10;;;9.00;98.20;;;;;;5021530;28;21295;-78
2022/11/13 02:33:34;;;;;;;1.57;1.20;;;9.00;98.20;;;;;;5030480;28;20845;-79
2022/11/13 02:36:01;;;;;;;1.53;1.20;;;9.00;98.20;;;;;;5024967;28;20497;-79
2022/11/13 02:38:29;;;;;;;1.60;1.20;;;8.90;98.20;;;;;;5040133;28;20456;-78
2022/11/13 02:40:56;;;;;;;1.53;1.20;;;8.90;98.20;;;;;;5020925;28;20560;-78
2022/11/13 02:43:24;;;;;;;1.53;1.17;;;8.90;98.20;;;;;;5047836;28;20616;-79
2022/11/13 02:45:51;;;;;;;1.60;1.10;;;8.90;98.20;;;;;;5021916;28;20452;-79
2022/11/13 02:48:18;;;;;;;1.57;1.20;;;8.90;98.20;;;;;;5029464;28;20458;-78
2022/11/13 02:50:45;;;;;;;1.60;1.30;;;8.90;98.20;;;;;;5025506;28;20467;-78
2022/11/13 02:53:12;;;;;;;2.07;1.87;;;8.80;98.20;;;;;;5011834;28;20502;-79
2022/11/13 02:55:40;;;;;;;1.60;1.20;;;8.80;98.20;;;;;;5041499;28;20507;-80
2022/11/13 02:58:07;;;;;;;1.60;1.30;;;8.70;98.20;;;;;;5046269;28;20547;-79
2022/11/13 03:00:35;;;;;;;1.60;1.20;;;8.70;98.20;;;;;;5042170;28;20462;-79
2022/11/13 03:03:02;;;;;;;1.60;1.20;;;8.70;98.20;;;;;;5038153;28;20487;-80
2022/11/13 03:05:28;;;;;;;1.57;1.27;;;8.70;98.20;;;;;;5047605;28;20451;-78
2022/11/13 03:07:55;;;;;;;1.53;1.20;;;8.70;98.20;;;;;;5039103;28;20492;-77
2022/11/13 03:10:22;;;;;;;1.60;1.20;;;8.60;98.20;;;;;;5051273;28;20496;-78
2022/11/13 03:12:49;;;;;;;1.87;1.67;;;8.60;98.20;;;;;;5038134;28;20525;-79
2022/11/13 03:15:16;;;;;;;1.60;1.20;;;8.60;98.20;;;;;;5040251;28;20480;-80
2022/11/13 03:17:44;;;;;;;1.57;1.20;;;8.60;98.20;;;;;;5019538;28;20488;-77
2022/11/13 03:20:11;;;;;;;1.53;1.20;;;8.60;98.20;;;;;;5031136;28;20441;-78
2022/11/13 03:22:38;;;;;;;1.60;1.20;;;8.60;98.20;;;;;;5019029;28;20484;-80
2022/11/13 03:25:06;;;;;;;1.60;1.20;;;8.60;98.20;;;;;;5030973;28;20463;-79
2022/11/13 03:27:32;;;;;;;1.57;1.20;;;8.60;98.20;;;;;;5019340;28;20607;-79
2022/11/13 03:30:00;;;;;;;1.53;1.20;;;8.50;98.20;;;;;;5029970;28;20456;-79
2022/11/13 03:32:27;;;;;;;1.60;1.20;;;8.40;98.20;;;;;;5032071;28;20483;-81
2022/11/13 03:34:55;;;;;;;1.80;1.70;;;8.40;98.20;;;;;;5037707;28;20548;-78
2022/11/13 03:37:22;;;;;;;1.60;1.20;;;8.40;98.20;;;;;;5032141;28;20517;-79
2022/11/13 03:39:49;;;;;;;1.60;1.20;;;8.40;98.20;;;;;;5034064;28;20519;-79
2022/11/13 03:42:16;;;;;;;1.60;1.30;;;8.40;98.20;;;;;;5030203;28;20559;-80
2022/11/13 03:44:43;;;;;;;1.60;1.20;;;8.30;98.20;;;;;;5050031;28;20527;-80
2022/11/13 03:47:09;;;;;;;1.60;1.30;;;8.30;98.20;;;;;;5027803;28;20492;-80
2022/11/13 03:49:36;;;;;;;1.60;1.20;;;8.20;98.20;;;;;;5030046;28;20516;-81
2022/11/13 03:52:05;;;;;;;1.60;1.30;;;8.20;98.20;;;;;;5029586;28;20467;-80
2022/11/13 03:54:32;;;;;;;1.60;1.30;;;8.10;98.20;;;;;;5047537;28;20511;-79
2022/11/13 03:56:59;;;;;;;1.60;1.20;;;8.10;98.20;;;;;;5019473;28;20484;-78
2022/11/13 03:59:25;;;;;;;1.60;1.20;;;8.00;98.20;;;;;;5030369;28;20460;-79
2022/11/13 04:01:52;;;;;;;1.60;1.20;;;8.00;98.20;;;;;;5026935;28;20486;-79
2022/11/13 04:04:19;;;;;;;1.60;1.27;;;8.00;98.20;;;;;;5037657;28;20459;-78
2022/11/13 04:06:46;;;;;;;1.60;1.30;;;7.90;98.20;;;;;;5029054;28;20490;-79
2022/11/13 04:09:14;;;;;;;1.60;1.30;;;7.90;98.20;;;;;;5035109;28;20547;-80
2022/11/13 04:11:41;;;;;;;1.60;1.30;;;7.90;98.20;;;;;;5025821;28;20483;-80
2022/11/13 04:14:08;;;;;;;3.20;3.00;;;7.90;98.20;;;;;;5043440;28;20465;-79
2022/11/13 04:16:35;;;;;;;1.57;1.20;;;7.80;98.20;;;;;;5019048;28;20480;-78
2022/11/13 04:19:01;;;;;;;1.60;1.30;;;7.80;98.20;;;;;;5040757;28;20547;-80
2022/11/13 04:21:28;;;;;;;1.60;1.30;;;7.80;98.20;;;;;;5036827;28;20467;-79
2022/11/13 04:23:55;;;;;;;1.60;1.30;;;7.80;98.20;;;;;;5049133;28;20531;-81
2022/11/13 04:26:23;;;;;;;1.60;1.30;;;7.80;98.20;;;;;;5038990;28;20558;-82
2022/11/13 04:28:50;;;;;;;1.60;1.30;;;7.70;98.20;;;;;;5041719;28;20464;-80
2022/11/13 04:31:17;;;;;;;1.60;1.30;;;7.80;98.20;;;;;;5019937;28;20503;-78
2022/11/13 04:33:44;;;;;;;1.60;1.30;;;7.80;98.20;;;;;;5025949;28;20479;-77
2022/11/13 04:36:11;;;;;;;1.60;1.40;;;7.80;98.20;;;;;;5018788;28;21930;-78
2022/11/13 04:38:37;;;;;;;1.60;1.23;;;7.70;98.20;;;;;;5035746;28;20451;-79
2022/11/13 04:43:52;;;;;;;1.60;1.30;;;7.70;98.20;;;;;;5004346;28;21126;-82
2022/11/13 04:46:19;;;;;;;1.60;1.20;;;7.70;98.20;;;;;;5022539;28;20564;-79
2022/11/13 04:48:46;;;;;;;1.60;1.30;;;7.60;98.20;;;;;;5035372;28;20518;-81
2022/11/13 04:51:13;;;;;;;1.60;1.30;;;7.60;98.20;;;;;;5031968;28;20483;-78
2022/11/13 04:53:40;;;;;;;3.10;2.27;;;7.60;98.20;;;;;;5049472;28;20448;-81
2022/11/13 04:56:07;;;;;;;1.60;1.30;;;7.60;98.20;;;;;;5018144;28;20477;-82
2022/11/13 04:58:34;;;;;;;1.60;1.40;;;7.50;98.20;;;;;;5033149;28;20559;-83
2022/11/13 05:01:03;;;;;;;1.60;1.30;;;7.50;98.20;;;;;;5027957;28;20459;-80
2022/11/13 05:03:30;;;;;;;1.60;1.30;;;7.50;98.20;;;;;;5028428;28;20495;-80
2022/11/13 05:06:02;;;;;;;1.60;1.30;;;7.50;98.20;;;;;;5022649;28;20455;-80
2022/11/13 05:08:29;;;;;;;1.60;1.30;;;7.50;98.20;;;;;;5028528;28;20464;-81
2022/11/13 05:10:56;;;;;;;1.60;1.30;;;7.40;98.20;;;;;;5019078;28;20483;-81
2022/11/13 05:13:23;;;;;;;1.60;1.30;;;7.40;98.20;;;;;;5047406;28;20502;-80
2022/11/13 05:15:50;;;;;;;1.60;1.30;;;7.30;98.20;;;;;;5033025;28;20480;-79
2022/11/13 05:18:18;;;;;;;1.60;1.30;;;7.30;98.20;;;;;;5046088;28;20611;-81
2022/11/13 05:20:45;;;;;;;1.60;1.30;;;7.30;98.20;;;;;;5048668;28;20462;-79
2022/11/13 05:23:12;;;;;;;1.60;1.30;;;7.30;98.20;;;;;;4999629;28;20528;-79
2022/11/13 05:25:39;;;;;;;1.60;1.30;;;7.30;98.20;;;;;;5030071;28;20452;-80
2022/11/13 05:28:06;;;;;;;1.60;1.30;;;7.20;98.20;;;;;;5018515;28;20996;-79
2022/11/13 05:30:32;;;;;;;1.60;1.30;;;7.20;98.20;;;;;;5027861;28;20452;-80
2022/11/13 05:32:59;;;;;;;1.60;1.37;;;7.20;98.20;;;;;;5016158;28;20491;-81
2022/11/13 05:35:27;;;;;;;1.60;1.40;;;7.10;98.20;;;;;;5036025;28;20556;-80
2022/11/13 05:37:54;;;;;;;1.60;1.40;;;7.10;98.20;;;;;;5026876;28;20487;-82
2022/11/13 05:40:21;;;;;;;1.60;1.23;;;7.10;98.20;;;;;;5026330;28;20536;-84
2022/11/13 05:42:48;;;;;;;1.60;1.30;;;7.10;98.20;;;;;;5031421;28;20498;-82
2022/11/13 05:45:15;;;;;;;1.60;1.30;;;7.00;98.20;;;;;;5047669;28;20479;-81
2022/11/13 05:47:42;;;;;;;1.60;1.30;;;7.00;98.20;;;;;;5018055;28;20494;-81
2022/11/13 05:50:09;;;;;;;1.60;1.30;;;6.90;98.20;;;;;;5027974;28;20475;-81
2022/11/13 05:52:38;;;;;;;1.60;1.30;;;6.90;98.20;;;;;;5031007;28;20506;-82
2022/11/13 05:55:06;;;;;;;1.60;1.30;;;6.80;98.20;;;;;;5052747;28;20486;-79
2022/11/13 05:57:33;;;;;;;1.60;1.30;;;6.80;98.20;;;;;;5023593;28;20494;-81
2022/11/13 05:59:59;;;;;;;1.60;1.30;;;6.80;98.20;;;;;;5031079;28;20641;-80
2022/11/13 06:02:26;;;;;;;1.60;1.30;;;6.70;98.20;;;;;;5033540;28;20483;-82
2022/11/13 06:04:53;;;;;;;1.63;1.30;;;6.70;98.20;;;;;;5049289;28;20599;-81
2022/11/13 06:07:20;;;;;;;1.60;1.30;;;6.70;98.20;;;;;;5029570;28;20487;-81
2022/11/13 06:09:48;;;;;;;1.60;1.30;;;6.70;98.20;;;;;;5032557;28;20456;-80
2022/11/13 06:12:15;;;;;;;1.60;1.30;;;6.60;98.20;;;;;;5027759;28;20483;-82
2022/11/13 06:14:42;;;;;;;1.60;1.30;;;6.60;98.20;;;;;;5041467;28;20451;-82
2022/11/13 06:17:08;;;;;;;1.60;1.30;;;6.60;98.20;;;;;;5027725;28;20548;-79
2022/11/13 06:19:35;;;;;;;1.63;1.33;;;6.50;98.20;;;;;;5035915;28;20483;-80
2022/11/13 06:22:02;;;;;;;1.60;1.30;;;6.50;98.20;;;;;;5025728;28;20530;-77
2022/11/13 06:24:29;;;;;;;1.60;1.30;;;6.50;98.20;;;;;;5038523;28;20466;-83
2022/11/13 06:26:57;;;;;;;1.60;1.30;;;6.40;98.20;;;;;;5031879;28;20524;-81
2022/11/13 06:29:24;;;;;;;1.67;1.30;;;6.40;98.20;;;;;;5040892;28;20477;-78
2022/11/13 06:31:51;;;;;;;1.60;1.37;;;6.30;98.20;;;;;;5032619;28;20483;-81
2022/11/13 06:34:17;;;;;;;1.60;1.30;;;6.30;98.20;;;;;;5039192;28;20483;-79
2022/11/13 06:36:44;;;;;;;1.67;1.30;;;6.20;98.20;;;;;;5027949;28;20493;-78
2022/11/13 06:39:12;;;;;;;1.60;1.30;;;6.20;98.20;;;;;;5041008;28;20462;-80
2022/11/13 06:41:39;;;;;;;1.60;1.40;;;6.20;98.20;;;;;;5033572;28;20625;-80
2022/11/13 06:44:07;;;;;;;1.60;1.30;;;6.20;98.20;;;;;;5044408;28;20462;-78
2022/11/13 06:46:34;;;;;;;1.70;1.40;;;6.20;98.20;;;;;;5031752;28;20555;-80
2022/11/13 06:49:01;;;;;;;1.60;1.30;;;6.20;98.20;;;;;;5041744;28;20471;-80
2022/11/13 06:51:30;;;;;;;1.70;1.50;;;6.20;98.20;;;;;;5030689;28;20882;-79
2022/11/13 06:53:58;;;;;;;1.60;1.30;;;6.30;98.20;;;;;;5044185;28;20484;-79
2022/11/13 06:56:25;;;;;;;1.70;1.43;;;6.30;98.20;;;;;;5026470;28;20506;-79
2022/11/13 06:58:52;;;;;;;2.47;2.27;;;6.30;98.20;;;;;;5037207;28;20466;-79
2022/11/13 07:01:22;;;;;;;1.63;1.40;;;6.30;98.20;;;;;;5024976;28;20552;-78
2022/11/13 07:03:49;;;;;;;1.60;1.30;;;6.20;98.20;;;;;;5036441;28;20562;-81
2022/11/13 07:06:17;;;;;;;1.67;1.40;;;6.20;98.20;;;;;;5024614;28;20487;-83
2022/11/13 07:08:45;;;;;;;1.70;1.40;;;6.20;98.20;;;;;;5037599;28;20459;-84
2022/11/13 07:11:14;;;;;;;1.63;1.33;;;6.20;98.20;;;;;;5023531;28;20479;-80
2022/11/13 07:13:41;;;;;;;1.70;1.40;;;6.10;98.20;;;;;;5031290;28;20543;-79
2022/11/13 07:16:09;;;;;;;1.60;1.30;;;6.10;98.20;;;;;;5025913;28;20492;-80
2022/11/13 07:18:38;;;;;;;3.57;3.30;;;6.10;98.20;;;;;;5034742;28;20471;-79
2022/11/13 07:21:06;;;;;;;1.60;1.30;;;6.10;98.20;;;;;;5023670;28;20839;-79
2022/11/13 07:23:35;;;;;;;1.63;1.40;;;6.10;98.20;;;;;;5027743;28;20457;-79
2022/11/13 07:26:02;;;;;;;1.60;1.30;;;6.20;98.20;;;;;;5013417;28;21182;-79
2022/11/13 07:28:29;;;;;;;1.60;1.40;;;6.20;98.20;;;;;;5028522;28;20467;-79
2022/11/13 07:30:57;;;;;;;1.63;1.30;;;6.20;98.20;;;;;;5019309;28;20470;-80
2022/11/13 07:33:24;;;;;;;1.67;1.30;;;6.30;98.20;;;;;;5032439;28;20456;-79
2022/11/13 07:35:54;;;;;;;1.60;1.40;;;6.40;98.20;;;;;;5018442;28;20551;-79
2022/11/13 07:38:22;;;;;;;1.60;1.30;;;6.50;98.20;;;;;;5033398;28;20506;-79
2022/11/13 07:40:49;;;;;;;1.60;1.40;;;6.60;98.20;;;;;;5022496;28;20455;-80
2022/11/13 07:43:16;;;;;;;1.67;1.40;;;6.70;98.20;;;;;;5027779;28;20562;-78
2022/11/13 07:45:43;;;;;;;1.60;1.37;;;6.80;98.20;;;;;;5027343;28;20955;-79
2022/11/13 07:48:11;;;;;;;1.60;1.30;;;6.80;98.20;;;;;;5017661;28;20486;-79
2022/11/13 07:50:38;;;;;;;1.60;1.30;;;6.90;98.20;;;;;;5029001;28;20459;-79
2022/11/13 07:53:08;;;;;;;1.60;1.40;;;7.00;98.20;;;;;;5022035;28;20856;-78
2022/11/13 07:55:36;;;;;;;1.60;1.30;;;7.10;98.20;;;;;;5027707;28;20483;-80
2022/11/13 07:58:04;;;;;;;1.60;1.33;;;7.20;98.20;;;;;;5017012;28;20682;-78
2022/11/13 08:00:32;;;;;;;1.60;1.30;;;7.30;98.20;;;;;;5026619;28;20464;-79
2022/11/13 08:03:05;;;;;;;1.60;1.30;;;7.40;98.20;;;;;;5019447;28;20467;-78
2022/11/13 08:05:32;;;;;;;1.60;1.40;;;7.50;98.20;;;;;;5032803;28;20471;-78
2022/11/13 08:07:58;;;;;;;1.60;1.23;;;7.60;98.20;;;;;;5014410;28;21219;-78
2022/11/13 08:10:27;;;;;;;1.60;1.40;;;7.70;98.20;;;;;;5027988;28;20513;-78
2022/11/13 08:13:00;;;;;;;1.60;1.30;;;7.90;98.20;;;;;;5014594;28;20483;-78
2022/11/13 08:15:27;;;;;;;1.67;1.30;;;8.00;98.20;;;;;;5029264;28;20874;-78
2022/11/13 08:17:54;;;;;;;1.60;1.30;;;8.10;98.20;;;;;;5013558;28;20505;-78
2022/11/13 08:20:21;;;;;;;1.67;1.30;;;8.30;98.20;;;;;;5031524;28;20463;-78
2022/11/13 08:22:48;;;;;;;1.60;1.30;;;8.40;98.20;;;;;;5017206;28;20497;-78
2022/11/13 08:25:16;;;;;;;1.67;1.30;;;8.50;98.20;;;;;;5026699;28;20477;-78
2022/11/13 08:27:44;;;;;;;1.60;1.30;;;8.60;98.20;;;;;;5018126;28;20479;-77
2022/11/13 08:30:12;;;;;;;1.60;1.30;;;8.80;98.20;;;;;;5029067;28;20455;-77
2022/11/13 08:32:39;;;;;;;1.60;1.30;;;8.90;98.20;;;;;;5016522;28;20479;-78
2022/11/13 08:35:07;;;;;;;1.60;1.30;;;9.00;98.20;;;;;;5029726;28;20839;-78
2022/11/13 08:37:34;;;;;;;1.60;1.30;;;9.10;98.20;;;;;;5017665;28;20529;-78
2022/11/13 08:40:00;;;;;;;1.60;1.20;;;9.20;98.20;;;;;;5028059;28;20502;-78
2022/11/13 08:42:28;;;;;;;1.60;1.30;;;9.30;98.20;;;;;;5017500;28;20471;-78
2022/11/13 08:44:56;;;;;;;1.60;1.30;;;9.40;98.20;;;;;;5031242;28;20999;-78
2022/11/13 08:47:23;;;;;;;1.60;1.20;;;9.50;98.20;;;;;;5015128;28;20488;-77
2022/11/13 08:49:49;;;;;;;1.60;1.30;;;9.60;98.20;;;;;;5029104;28;21072;-81
2022/11/13 08:52:17;;;;;;;1.60;1.20;;;9.70;98.20;;;;;;5020195;28;20479;-80
2022/11/13 08:54:43;;;;;;;1.60;1.20;;;9.80;98.20;;;;;;5023866;28;20459;-78
2022/11/13 08:57:10;;;;;;;1.60;1.20;;;9.90;98.20;;;;;;5017569;28;20526;-79
2022/11/13 08:59:37;;;;;;;1.60;1.20;;;10.00;98.20;;;;;;5026135;28;20570;-77
2022/11/13 09:02:05;;;;;;;1.60;1.20;;;10.10;98.20;;;;;;5013269;28;20487;-77
2022/11/13 09:04:32;;;;;;;1.60;1.20;;;10.10;98.20;;;;;;5022516;28;20455;-78
2022/11/13 09:06:59;;;;;;;1.60;1.20;;;10.30;98.20;;;;;;5012650;28;20480;-78
2022/11/13 09:09:26;;;;;;;1.60;1.20;;;10.30;98.20;;;;;;5024609;28;20458;-78
2022/11/13 09:11:52;;;;;;;1.60;1.20;;;10.40;98.20;;;;;;5010635;28;20482;-78
2022/11/13 09:14:19;;;;;;;1.60;1.20;;;10.50;98.20;;;;;;5021392;28;20474;-77
2022/11/13 09:16:46;;;;;;;1.50;1.10;;;10.60;98.20;;;;;;5014186;28;20486;-77
2022/11/13 09:19:14;;;;;;;1.60;1.10;;;10.70;98.20;;;;;;5031141;28;20493;-77
2022/11/13 09:21:41;;;;;;;1.60;1.20;;;10.90;98.20;;;;;;5014356;28;20487;-77
2022/11/13 09:24:08;;;;;;;1.60;1.10;;;11.00;98.20;;;;;;5022643;28;20503;-78
2022/11/13 09:26:35;;;;;;;1.60;1.10;;;11.10;98.20;;;;;;5017257;28;20506;-79
2022/11/13 09:29:03;;;;;;;1.60;1.10;;;11.20;98.20;;;;;;5030449;28;20491;-78
2022/11/13 09:31:30;;;;;;;1.60;1.10;;;11.30;98.20;;;;;;5020542;28;20887;-80
2022/11/13 09:33:57;;;;;;;1.60;1.10;;;11.50;98.20;;;;;;5016698;28;20830;-77
2022/11/13 09:36:25;;;;;;;1.60;1.20;;;11.60;98.20;;;;;;5007026;28;21064;-76
2022/11/13 09:38:52;;;;;;;1.60;1.10;;;11.80;98.20;;;;;;5023631;28;20560;-78
2022/11/13 09:41:21;;;;;;;1.57;1.10;;;11.90;98.20;;;;;;5017512;28;20494;-79
2022/11/13 09:43:51;;;;;;;1.60;1.10;;;12.00;98.20;;;;;;5028288;28;20541;-78
2022/11/13 09:46:22;;;;;;;1.60;1.10;;;12.10;98.20;;;;;;5012783;28;20527;-77
2022/11/13 09:48:54;;;;;;;1.60;1.10;;;12.20;98.20;;;;;;5022831;28;20455;-77
2022/11/13 09:51:25;;;;;;;1.60;1.10;;;12.40;98.20;;;;;;5013594;28;20935;-77
2022/11/13 09:53:54;;;;;;;1.50;1.00;;;12.50;98.20;;;;;;5023581;28;20530;-77
2022/11/13 09:56:28;;;;;;;1.60;1.10;;;12.70;97.50;;;;;;5013789;28;20574;-78
2022/11/13 09:59:02;;;;;;;1.60;1.10;;;12.90;96.50;;;;;;5022096;28;20463;-77
2022/11/13 10:01:36;;;;;;;1.50;0.93;;;13.00;96.60;;;;;;5011544;28;20602;-77
2022/11/13 10:04:08;;;;;;;1.53;1.10;;;13.10;97.40;;;;;;5023376;28;20455;-77
2022/11/13 10:06:49;;;;;;;1.53;1.00;;;13.30;97.40;;;;;;5010025;28;20479;-77
2022/11/13 10:09:28;;;;;;;1.50;1.00;;;13.50;93.50;;;;;;5025365;28;20497;-76
2022/11/13 10:11:58;;;;;;;1.60;1.10;;;13.60;91.70;;;;;;5011692;28;20540;-78
2022/11/13 10:14:30;;;;;;;1.53;0.90;;;13.70;89.30;;;;;;5024122;28;20547;-78
2022/11/13 10:17:02;;;;;;;1.50;1.00;;;13.80;90.10;;;;;;5015086;28;21001;-77
2022/11/13 10:19:34;;;;;;;1.60;1.10;;;13.90;89.90;;;;;;5027495;28;20984;-75
2022/11/13 10:22:09;;;;;;;1.53;1.00;;;14.10;90.30;;;;;;5018037;28;20562;-76
2022/11/13 10:24:39;;;;;;;1.53;1.00;;;14.30;88.60;;;;;;5032232;28;20531;-77
2022/11/13 10:27:09;;;;;;;1.50;1.00;;;14.40;88.60;;;;;;5012149;28;20981;-76
2022/11/13 10:29:37;;;;;;;1.53;1.03;;;14.50;89.00;;;;;;5022845;28;20465;-76
2022/11/13 10:32:17;;;;;;;1.57;1.00;;;14.70;89.30;;;;;;5011172;28;20483;-76
2022/11/13 10:34:48;;;;;;;1.53;1.00;;;14.80;88.80;;;;;;5022316;28;20831;-76
2022/11/13 10:37:28;;;;;;;1.60;1.10;;;14.90;87.00;;;;;;5011083;28;20486;-77
2022/11/13 10:39:56;;;;;;;1.53;1.00;;;14.90;87.70;;;;;;5022562;28;20463;-76
2022/11/13 10:42:27;;;;;;;1.53;1.00;;;15.00;87.70;;;;;;5020419;28;20549;-75
2022/11/13 10:44:57;;;;;;;1.53;1.00;;;15.00;87.40;;;;;;5026664;28;20840;-75
2022/11/13 10:47:26;;;;;;;1.57;1.00;;;15.10;86.50;;;;;;5013289;28;20471;-77
2022/11/13 10:49:54;;;;;;;1.50;1.00;;;15.20;86.30;;;;;;5025639;28;20467;-77
2022/11/13 10:52:24;;;;;;;1.53;1.00;;;15.40;85.70;;;;;;5016544;28;20896;-77
2022/11/13 10:54:51;;;;;;;1.50;1.00;;;15.50;83.40;;;;;;5027135;28;20466;-77
2022/11/13 10:57:27;;;;;;;1.53;1.00;;;15.60;85.50;;;;;;5015910;28;20939;-77
2022/11/13 10:59:55;;;;;;;1.77;1.30;;;15.80;82.90;;;;;;5026770;28;20751;-77
2022/11/13 11:02:24;;;;;;;1.60;1.00;;;16.00;82.40;;;;;;5017008;28;20537;-77
2022/11/13 11:05:02;;;;;;;1.50;1.00;;;16.10;81.10;;;;;;5028761;28;20473;-77
2022/11/13 11:07:29;;;;;;;1.57;0.90;;;16.20;81.30;;;;;;5015580;28;20479;-77
2022/11/13 11:09:55;;;;;;;1.60;1.00;;;16.30;80.10;;;;;;5031519;28;20502;-77
2022/11/13 11:12:25;;;;;;;1.57;0.90;;;16.40;79.20;;;;;;5007680;28;20530;-78
2022/11/13 11:15:15;;;;;;;1.57;1.00;;;16.50;79.90;;;;;;5022812;28;20471;-76
2022/11/13 11:17:50;;;;;;;1.57;1.00;;;16.60;78.60;;;;;;5013236;28;20485;-78
2022/11/13 11:20:25;;;;;;;1.50;1.00;;;16.50;77.80;;;;;;5026148;28;21045;-76
2022/11/13 11:22:57;;;;;;;1.50;0.90;;;16.60;77.80;;;;;;5013391;28;20586;-77
2022/11/13 11:25:34;;;;;;;1.57;1.00;;;16.60;76.50;;;;;;5022471;28;20953;-76
2022/11/13 11:28:12;;;;;;;1.50;0.90;;;16.60;77.40;;;;;;5007570;28;20850;-77
2022/11/13 11:30:44;;;;;;;1.53;1.00;;;16.60;77.20;;;;;;5022441;28;20471;-78
2022/11/13 11:33:17;;;;;;;1.50;1.00;;;16.80;78.20;;;;;;5013052;28;20527;-77
2022/11/13 11:35:49;;;;;;;1.57;1.00;;;16.80;77.20;;;;;;5025941;28;20460;-77
2022/11/13 11:38:22;;;;;;;1.53;1.00;;;16.90;77.00;;;;;;4995956;28;20678;-77
2022/11/13 11:40:53;;;;;;;1.50;0.90;;;16.90;77.20;;;;;;5006971;28;20969;-76
2022/11/13 11:43:29;;;;;;;1.50;0.90;;;16.90;77.10;;;;;;5023549;28;20928;-77
2022/11/13 11:45:55;;;;;;;1.50;0.93;;;16.90;77.30;;;;;;5012427;28;20467;-77
2022/11/13 11:48:27;;;;;;;1.53;1.00;;;16.80;76.80;;;;;;5021262;28;20514;-76
2022/11/13 11:51:04;;;;;;;1.60;1.00;;;16.80;76.20;;;;;;5013622;28;20467;-76
2022/11/13 11:53:41;;;;;;;1.53;0.93;;;16.70;75.40;;;;;;5021897;28;20901;-75
2022/11/13 11:56:18;;;;;;;1.57;0.97;;;16.70;76.40;;;;;;5009849;28;20977;-76
2022/11/13 11:59:13;;;;;;;1.53;0.93;;;16.70;76.80;;;;;;5020761;28;20463;-76
2022/11/13 12:02:01;;;;;;;1.53;0.90;;;16.70;76.90;;;;;;4998730;28;20482;-76
2022/11/13 12:04:40;;;;;;;1.60;1.10;;;16.70;76.50;;;;;;5017420;28;20550;-76
2022/11/13 12:07:22;;;;;;;1.57;1.00;;;16.70;77.30;;;;;;5007542;28;20490;-76
2022/11/13 12:09:56;;;;;;;1.50;1.00;;;16.70;76.50;;;;;;5023508;28;20465;-75
2022/11/13 12:12:34;;;;;;;1.60;0.97;;;16.70;76.60;;;;;;5010795;28;20850;-76
2022/11/13 12:15:09;;;;;;;1.53;0.90;;;16.70;75.90;;;;;;5017710;28;20502;-76
2022/11/13 12:17:48;;;;;;;1.50;0.90;;;16.60;76.10;;;;;;5010487;28;20698;-76
2022/11/13 12:20:25;;;;;;;1.50;1.00;;;16.60;77.30;;;;;;5018876;28;21252;-76
2022/11/13 12:23:01;;;;;;;1.60;1.10;;;16.70;77.30;;;;;;5012716;28;20495;-76
2022/11/13 12:25:36;;;;;;;1.50;0.90;;;16.80;75.90;;;;;;5022874;28;20544;-75
2022/11/13 12:28:12;;;;;;;1.53;1.00;;;16.80;75.90;;;;;;5009855;28;20493;-76
2022/11/13 12:30:53;;;;;;;1.53;0.97;;;16.90;75.90;;;;;;5013747;28;20470;-76
2022/11/13 12:33:31;;;;;;;1.57;1.00;;;17.20;75.10;;;;;;4996535;28;20478;-76
2022/11/13 12:35:59;;;;;;;1.53;0.90;;;17.30;75.20;;;;;;5011317;28;20813;-76
2022/11/13 12:38:36;;;;;;;1.50;0.90;;;17.60;74.90;;;;;;5022380;28;20569;-76
2022/11/13 12:41:13;;;;;;;1.50;0.90;;;17.80;74.60;;;;;;5006828;28;20474;-76
2022/11/13 12:43:57;;;;;;;1.50;0.97;;;18.10;74.00;;;;;;5023420;28;20463;-76
2022/11/13 12:46:34;;;;;;;1.53;0.90;;;18.30;74.60;;;;;;5002838;28;20927;-76
2022/11/13 12:49:01;;;;;;;1.50;0.90;;;18.50;74.10;;;;;;5021906;28;20540;-76
2022/11/13 12:51:39;;;;;;;1.60;1.10;;;18.60;74.40;;;;;;5009202;28;20483;-76
2022/11/13 12:54:09;;;;;;;1.50;0.90;;;18.70;72.30;;;;;;5018531;28;20751;-75
2022/11/13 12:56:36;;;;;;;1.50;0.90;;;18.70;71.50;;;;;;5008854;28;20754;-76
2022/11/13 12:59:25;;;;;;;1.53;1.00;;;18.70;71.80;;;;;;5018288;28;20543;-76
2022/11/13 13:02:01;;;;;;;1.57;1.00;;;18.80;73.00;;;;;;5009701;28;20478;-75
2022/11/13 13:04:57;;;;;;;1.50;0.90;;;18.90;72.90;;;;;;5020987;28;20984;-77
2022/11/13 13:08:02;;;;;;;1.50;0.90;;;18.90;72.10;;;;;;5012475;28;21288;-77
2022/11/13 13:10:34;;;;;;;1.53;0.90;;;18.90;71.00;;;;;;5017441;28;20943;-77